Terminal Aerodrome Forecast
Issued by NWS

Home | Current Version | Previous Version | Text Only | Print | Product List | Glossary On
Versions: 1 2 3 4 5 6 7 8 9 10 11 12 13 14
000
FTUS45 KTFX 301130
TAFLWT
TAF
KLWT 301130Z 3012/3112 VRB05KT P6SM VCSH SCT050 BKN090
      TEMPO 3012/3016 -SHRA BKN050
     FM301600 30018G25KT P6SM -SHRA BKN060
     FM310000 30011KT P6SM SCT060 BKN100=

USA.gov is the U.S. government's official web portal to all federal, state and local government web resources and services.